sensor_id;sensor_type;location;lat;lon;timestamp;P1;durP1;ratioP1;P2;durP2;ratioP2
60665;SDS011;59128;44.642;21.188;2024-02-14T00:02:13;6.82;;;5.90;;
60665;SDS011;59128;44.642;21.188;2024-02-14T00:04:40;6.15;;;5.55;;
60665;SDS011;59128;44.642;21.188;2024-02-14T00:07:06;7.65;;;6.53;;
60665;SDS011;59128;44.642;21.188;2024-02-14T00:09:32;6.60;;;5.90;;
60665;SDS011;59128;44.642;21.188;2024-02-14T00:11:58;6.78;;;6.00;;
60665;SDS011;59128;44.642;21.188;2024-02-14T00:14:24;6.40;;;5.72;;
60665;SDS011;59128;44.642;21.188;2024-02-14T00:16:50;6.10;;;5.60;;
60665;SDS011;59128;44.642;21.188;2024-02-14T00:19:16;6.47;;;5.80;;
60665;SDS011;59128;44.642;21.188;2024-02-14T00:21:42;7.22;;;6.15;;
60665;SDS011;59128;44.642;21.188;2024-02-14T00:24:08;6.38;;;5.65;;
60665;SDS011;59128;44.642;21.188;2024-02-14T00:26:34;6.45;;;5.80;;
60665;SDS011;59128;44.642;21.188;2024-02-14T00:29:01;6.25;;;5.65;;
60665;SDS011;59128;44.642;21.188;2024-02-14T00:31:27;6.10;;;5.50;;
60665;SDS011;59128;44.642;21.188;2024-02-14T00:33:55;6.18;;;5.57;;
60665;SDS011;59128;44.642;21.188;2024-02-14T00:36:21;6.70;;;5.63;;
60665;SDS011;59128;44.642;21.188;2024-02-14T00:38:47;6.10;;;5.50;;
60665;SDS011;59128;44.642;21.188;2024-02-14T00:41:13;6.68;;;5.95;;
60665;SDS011;59128;44.642;21.188;2024-02-14T00:43:39;6.40;;;5.75;;
60665;SDS011;59128;44.642;21.188;2024-02-14T00:46:05;8.52;;;6.40;;
60665;SDS011;59128;44.642;21.188;2024-02-14T00:48:34;7.18;;;6.20;;
60665;SDS011;59128;44.642;21.188;2024-02-14T00:51:00;7.13;;;6.40;;
60665;SDS011;59128;44.642;21.188;2024-02-14T00:53:26;6.75;;;6.00;;
60665;SDS011;59128;44.642;21.188;2024-02-14T00:55:52;7.18;;;6.40;;
60665;SDS011;59128;44.642;21.188;2024-02-14T00:58:18;7.13;;;6.43;;
60665;SDS011;59128;44.642;21.188;2024-02-14T01:00:44;7.25;;;6.20;;
60665;SDS011;59128;44.642;21.188;2024-02-14T01:03:10;6.78;;;5.90;;
60665;SDS011;59128;44.642;21.188;2024-02-14T01:05:38;6.60;;;5.90;;
60665;SDS011;59128;44.642;21.188;2024-02-14T01:08:04;6.88;;;6.18;;
60665;SDS011;59128;44.642;21.188;2024-02-14T01:10:30;7.28;;;6.07;;
60665;SDS011;59128;44.642;21.188;2024-02-14T01:12:56;6.77;;;6.07;;
60665;SDS011;59128;44.642;21.188;2024-02-14T01:15:23;7.43;;;6.10;;
60665;SDS011;59128;44.642;21.188;2024-02-14T01:17:49;8.07;;;6.40;;
60665;SDS011;59128;44.642;21.188;2024-02-14T01:20:15;6.80;;;6.10;;
60665;SDS011;59128;44.642;21.188;2024-02-14T01:22:41;8.23;;;6.40;;
60665;SDS011;59128;44.642;21.188;2024-02-14T01:25:07;6.88;;;6.00;;
60665;SDS011;59128;44.642;21.188;2024-02-14T01:27:36;8.45;;;6.63;;
60665;SDS011;59128;44.642;21.188;2024-02-14T01:30:02;7.80;;;6.95;;
60665;SDS011;59128;44.642;21.188;2024-02-14T01:32:29;6.97;;;6.28;;
60665;SDS011;59128;44.642;21.188;2024-02-14T01:34:55;8.20;;;7.15;;
60665;SDS011;59128;44.642;21.188;2024-02-14T01:37:22;7.18;;;6.40;;
60665;SDS011;59128;44.642;21.188;2024-02-14T01:39:48;6.90;;;6.20;;
60665;SDS011;59128;44.642;21.188;2024-02-14T01:42:14;6.57;;;5.80;;
60665;SDS011;59128;44.642;21.188;2024-02-14T01:44:40;6.70;;;6.00;;
60665;SDS011;59128;44.642;21.188;2024-02-14T01:47:06;5.95;;;5.38;;
60665;SDS011;59128;44.642;21.188;2024-02-14T01:49:33;6.40;;;5.75;;
60665;SDS011;59128;44.642;21.188;2024-02-14T01:52:01;5.93;;;5.32;;
60665;SDS011;59128;44.642;21.188;2024-02-14T01:54:29;6.78;;;5.43;;
60665;SDS011;59128;44.642;21.188;2024-02-14T01:56:56;6.50;;;5.68;;
60665;SDS011;59128;44.642;21.188;2024-02-14T01:59:23;6.97;;;5.85;;
60665;SDS011;59128;44.642;21.188;2024-02-14T02:01:49;6.80;;;6.07;;
60665;SDS011;59128;44.642;21.188;2024-02-14T02:04:17;6.78;;;6.18;;
60665;SDS011;59128;44.642;21.188;2024-02-14T02:06:43;7.15;;;6.00;;
60665;SDS011;59128;44.642;21.188;2024-02-14T02:09:09;7.38;;;6.35;;
60665;SDS011;59128;44.642;21.188;2024-02-14T02:11:48;6.80;;;6.10;;
60665;SDS011;59128;44.642;21.188;2024-02-14T02:14:15;7.72;;;6.40;;
60665;SDS011;59128;44.642;21.188;2024-02-14T02:16:42;7.53;;;6.73;;
60665;SDS011;59128;44.642;21.188;2024-02-14T02:19:08;7.43;;;6.57;;
60665;SDS011;59128;44.642;21.188;2024-02-14T02:21:35;8.35;;;6.78;;
60665;SDS011;59128;44.642;21.188;2024-02-14T02:24:01;7.90;;;6.82;;
60665;SDS011;59128;44.642;21.188;2024-02-14T02:26:27;7.70;;;7.00;;
60665;SDS011;59128;44.642;21.188;2024-02-14T02:28:57;7.60;;;6.80;;
60665;SDS011;59128;44.642;21.188;2024-02-14T02:31:24;7.38;;;6.68;;
60665;SDS011;59128;44.642;21.188;2024-02-14T02:33:51;8.05;;;6.75;;
60665;SDS011;59128;44.642;21.188;2024-02-14T02:36:17;7.55;;;6.85;;
60665;SDS011;59128;44.642;21.188;2024-02-14T02:38:43;8.27;;;6.70;;
60665;SDS011;59128;44.642;21.188;2024-02-14T02:41:09;8.30;;;7.20;;
60665;SDS011;59128;44.642;21.188;2024-02-14T02:43:35;8.60;;;7.32;;
60665;SDS011;59128;44.642;21.188;2024-02-14T02:46:01;9.25;;;7.38;;
60665;SDS011;59128;44.642;21.188;2024-02-14T02:48:28;7.50;;;6.68;;
60665;SDS011;59128;44.642;21.188;2024-02-14T02:50:54;8.23;;;7.18;;
60665;SDS011;59128;44.642;21.188;2024-02-14T02:53:20;7.47;;;6.78;;
60665;SDS011;59128;44.642;21.188;2024-02-14T02:55:46;7.60;;;6.72;;
60665;SDS011;59128;44.642;21.188;2024-02-14T02:58:12;8.40;;;6.93;;
60665;SDS011;59128;44.642;21.188;2024-02-14T03:00:40;7.43;;;6.57;;
60665;SDS011;59128;44.642;21.188;2024-02-14T03:03:09;7.55;;;6.75;;
60665;SDS011;59128;44.642;21.188;2024-02-14T03:05:35;7.80;;;7.00;;
60665;SDS011;59128;44.642;21.188;2024-02-14T03:08:04;7.97;;;7.10;;
60665;SDS011;59128;44.642;21.188;2024-02-14T03:10:32;7.45;;;6.68;;
60665;SDS011;59128;44.642;21.188;2024-02-14T03:12:58;8.30;;;7.50;;
60665;SDS011;59128;44.642;21.188;2024-02-14T03:15:24;8.55;;;7.75;;
60665;SDS011;59128;44.642;21.188;2024-02-14T03:17:51;8.18;;;7.38;;
60665;SDS011;59128;44.642;21.188;2024-02-14T03:20:17;9.27;;;8.27;;
60665;SDS011;59128;44.642;21.188;2024-02-14T03:22:44;9.32;;;8.27;;
60665;SDS011;59128;44.642;21.188;2024-02-14T03:25:21;10.02;;;8.80;;
60665;SDS011;59128;44.642;21.188;2024-02-14T03:27:48;9.00;;;8.10;;
60665;SDS011;59128;44.642;21.188;2024-02-14T03:30:18;9.05;;;8.15;;
60665;SDS011;59128;44.642;21.188;2024-02-14T03:32:54;9.30;;;8.32;;
60665;SDS011;59128;44.642;21.188;2024-02-14T03:35:20;9.05;;;8.00;;
60665;SDS011;59128;44.642;21.188;2024-02-14T03:37:48;9.10;;;8.02;;
60665;SDS011;59128;44.642;21.188;2024-02-14T03:40:17;8.85;;;7.70;;
60665;SDS011;59128;44.642;21.188;2024-02-14T03:42:45;8.85;;;7.95;;
60665;SDS011;59128;44.642;21.188;2024-02-14T03:45:11;8.30;;;7.30;;
60665;SDS011;59128;44.642;21.188;2024-02-14T03:47:37;8.75;;;7.63;;
60665;SDS011;59128;44.642;21.188;2024-02-14T03:50:04;8.68;;;7.75;;
60665;SDS011;59128;44.642;21.188;2024-02-14T03:52:31;7.78;;;6.90;;
60665;SDS011;59128;44.642;21.188;2024-02-14T03:54:57;8.70;;;7.25;;
60665;SDS011;59128;44.642;21.188;2024-02-14T03:57:24;9.30;;;7.53;;
60665;SDS011;59128;44.642;21.188;2024-02-14T03:59:53;8.15;;;7.10;;
60665;SDS011;59128;44.642;21.188;2024-02-14T04:02:19;9.40;;;7.90;;
60665;SDS011;59128;44.642;21.188;2024-02-14T04:04:45;8.15;;;7.25;;
60665;SDS011;59128;44.642;21.188;2024-02-14T04:07:12;8.75;;;7.53;;
60665;SDS011;59128;44.642;21.188;2024-02-14T04:09:38;8.40;;;6.70;;
60665;SDS011;59128;44.642;21.188;2024-02-14T04:12:04;9.95;;;7.00;;
60665;SDS011;59128;44.642;21.188;2024-02-14T04:14:30;8.07;;;7.20;;
60665;SDS011;59128;44.642;21.188;2024-02-14T04:16:56;7.57;;;6.78;;
60665;SDS011;59128;44.642;21.188;2024-02-14T04:19:23;8.10;;;7.13;;
60665;SDS011;59128;44.642;21.188;2024-02-14T04:21:49;7.80;;;7.00;;
60665;SDS011;59128;44.642;21.188;2024-02-14T04:24:15;7.50;;;6.65;;
60665;SDS011;59128;44.642;21.188;2024-02-14T04:26:41;7.50;;;6.77;;
60665;SDS011;59128;44.642;21.188;2024-02-14T04:29:07;8.30;;;6.93;;
60665;SDS011;59128;44.642;21.188;2024-02-14T04:31:34;8.02;;;6.90;;
60665;SDS011;59128;44.642;21.188;2024-02-14T04:34:00;8.63;;;6.68;;
60665;SDS011;59128;44.642;21.188;2024-02-14T04:36:26;8.68;;;6.90;;
60665;SDS011;59128;44.642;21.188;2024-02-14T04:38:54;8.00;;;7.10;;
60665;SDS011;59128;44.642;21.188;2024-02-14T04:41:20;7.65;;;6.75;;
60665;SDS011;59128;44.642;21.188;2024-02-14T04:43:47;8.20;;;6.70;;
60665;SDS011;59128;44.642;21.188;2024-02-14T04:46:13;8.83;;;6.90;;
60665;SDS011;59128;44.642;21.188;2024-02-14T04:48:39;7.85;;;7.03;;
60665;SDS011;59128;44.642;21.188;2024-02-14T04:51:05;10.18;;;7.00;;
60665;SDS011;59128;44.642;21.188;2024-02-14T04:53:32;8.68;;;7.20;;
60665;SDS011;59128;44.642;21.188;2024-02-14T04:55:58;8.68;;;7.78;;
60665;SDS011;59128;44.642;21.188;2024-02-14T04:58:24;8.27;;;7.23;;
60665;SDS011;59128;44.642;21.188;2024-02-14T05:00:52;8.23;;;7.40;;
60665;SDS011;59128;44.642;21.188;2024-02-14T05:03:18;8.95;;;7.63;;
60665;SDS011;59128;44.642;21.188;2024-02-14T05:05:44;8.83;;;7.20;;
60665;SDS011;59128;44.642;21.188;2024-02-14T05:08:10;8.48;;;7.57;;
60665;SDS011;59128;44.642;21.188;2024-02-14T05:10:36;8.00;;;7.20;;
60665;SDS011;59128;44.642;21.188;2024-02-14T05:13:02;9.23;;;7.55;;
60665;SDS011;59128;44.642;21.188;2024-02-14T05:15:28;8.03;;;7.20;;
60665;SDS011;59128;44.642;21.188;2024-02-14T05:17:54;8.40;;;7.15;;
60665;SDS011;59128;44.642;21.188;2024-02-14T05:20:21;8.82;;;7.15;;
60665;SDS011;59128;44.642;21.188;2024-02-14T05:22:47;9.13;;;7.38;;
60665;SDS011;59128;44.642;21.188;2024-02-14T05:25:13;9.02;;;7.78;;
60665;SDS011;59128;44.642;21.188;2024-02-14T05:27:39;8.10;;;7.25;;
60665;SDS011;59128;44.642;21.188;2024-02-14T05:30:05;9.77;;;7.85;;
60665;SDS011;59128;44.642;21.188;2024-02-14T05:32:32;8.40;;;7.50;;
60665;SDS011;59128;44.642;21.188;2024-02-14T05:34:58;9.82;;;7.55;;
60665;SDS011;59128;44.642;21.188;2024-02-14T05:37:24;7.65;;;6.85;;
60665;SDS011;59128;44.642;21.188;2024-02-14T05:39:54;8.32;;;7.20;;
60665;SDS011;59128;44.642;21.188;2024-02-14T05:42:20;8.32;;;7.28;;
60665;SDS011;59128;44.642;21.188;2024-02-14T05:44:46;9.77;;;7.22;;
60665;SDS011;59128;44.642;21.188;2024-02-14T05:47:13;10.07;;;7.88;;
60665;SDS011;59128;44.642;21.188;2024-02-14T05:49:39;8.57;;;7.47;;
60665;SDS011;59128;44.642;21.188;2024-02-14T05:52:06;8.20;;;7.30;;
60665;SDS011;59128;44.642;21.188;2024-02-14T05:54:32;8.38;;;7.10;;
60665;SDS011;59128;44.642;21.188;2024-02-14T05:56:58;10.07;;;7.55;;
60665;SDS011;59128;44.642;21.188;2024-02-14T05:59:24;10.40;;;7.87;;
60665;SDS011;59128;44.642;21.188;2024-02-14T06:01:50;9.85;;;7.63;;
60665;SDS011;59128;44.642;21.188;2024-02-14T06:04:16;10.23;;;8.07;;
60665;SDS011;59128;44.642;21.188;2024-02-14T06:06:42;8.40;;;7.30;;
60665;SDS011;59128;44.642;21.188;2024-02-14T06:09:09;9.18;;;7.90;;
60665;SDS011;59128;44.642;21.188;2024-02-14T06:11:36;9.40;;;7.82;;
60665;SDS011;59128;44.642;21.188;2024-02-14T06:14:04;9.60;;;7.80;;
60665;SDS011;59128;44.642;21.188;2024-02-14T06:16:31;8.50;;;7.60;;
60665;SDS011;59128;44.642;21.188;2024-02-14T06:18:57;12.20;;;8.05;;
60665;SDS011;59128;44.642;21.188;2024-02-14T06:21:23;10.13;;;8.05;;
60665;SDS011;59128;44.642;21.188;2024-02-14T06:23:50;11.85;;;7.93;;
60665;SDS011;59128;44.642;21.188;2024-02-14T06:26:16;10.88;;;8.05;;
60665;SDS011;59128;44.642;21.188;2024-02-14T06:28:46;9.23;;;7.00;;
60665;SDS011;59128;44.642;21.188;2024-02-14T06:31:12;8.35;;;7.38;;
60665;SDS011;59128;44.642;21.188;2024-02-14T06:33:39;8.80;;;6.82;;
60665;SDS011;59128;44.642;21.188;2024-02-14T06:36:05;7.88;;;6.90;;
60665;SDS011;59128;44.642;21.188;2024-02-14T06:38:31;11.95;;;6.90;;
60665;SDS011;59128;44.642;21.188;2024-02-14T06:40:57;8.10;;;6.50;;
60665;SDS011;59128;44.642;21.188;2024-02-14T06:43:23;9.00;;;6.78;;
60665;SDS011;59128;44.642;21.188;2024-02-14T06:45:49;7.95;;;6.45;;
60665;SDS011;59128;44.642;21.188;2024-02-14T06:48:15;7.80;;;6.50;;
60665;SDS011;59128;44.642;21.188;2024-02-14T06:50:41;7.07;;;6.38;;
60665;SDS011;59128;44.642;21.188;2024-02-14T06:53:07;7.05;;;6.15;;
60665;SDS011;59128;44.642;21.188;2024-02-14T06:55:33;8.73;;;6.57;;
60665;SDS011;59128;44.642;21.188;2024-02-14T06:57:59;7.80;;;6.20;;
60665;SDS011;59128;44.642;21.188;2024-02-14T07:00:25;7.10;;;6.40;;
60665;SDS011;59128;44.642;21.188;2024-02-14T07:02:53;7.57;;;6.18;;
60665;SDS011;59128;44.642;21.188;2024-02-14T07:05:19;6.20;;;5.60;;
60665;SDS011;59128;44.642;21.188;2024-02-14T07:07:45;7.82;;;5.90;;
60665;SDS011;59128;44.642;21.188;2024-02-14T07:10:11;7.43;;;5.72;;
60665;SDS011;59128;44.642;21.188;2024-02-14T07:12:37;6.65;;;5.97;;
60665;SDS011;59128;44.642;21.188;2024-02-14T07:15:04;7.00;;;6.20;;
60665;SDS011;59128;44.642;21.188;2024-02-14T07:17:31;6.57;;;5.83;;
60665;SDS011;59128;44.642;21.188;2024-02-14T07:19:57;8.13;;;6.20;;
60665;SDS011;59128;44.642;21.188;2024-02-14T07:22:23;7.85;;;6.53;;
60665;SDS011;59128;44.642;21.188;2024-02-14T07:24:49;8.15;;;6.00;;
60665;SDS011;59128;44.642;21.188;2024-02-14T07:27:16;7.82;;;6.22;;
60665;SDS011;59128;44.642;21.188;2024-02-14T07:29:42;6.70;;;6.00;;
60665;SDS011;59128;44.642;21.188;2024-02-14T07:32:09;6.15;;;5.63;;
60665;SDS011;59128;44.642;21.188;2024-02-14T07:34:37;6.50;;;5.47;;
60665;SDS011;59128;44.642;21.188;2024-02-14T07:37:04;7.83;;;6.20;;
60665;SDS011;59128;44.642;21.188;2024-02-14T07:39:30;6.70;;;5.82;;
60665;SDS011;59128;44.642;21.188;2024-02-14T07:41:56;7.63;;;6.07;;
60665;SDS011;59128;44.642;21.188;2024-02-14T07:44:22;6.25;;;5.65;;
60665;SDS011;59128;44.642;21.188;2024-02-14T07:46:49;7.13;;;5.97;;
60665;SDS011;59128;44.642;21.188;2024-02-14T07:49:15;6.90;;;6.20;;
60665;SDS011;59128;44.642;21.188;2024-02-14T07:51:42;6.90;;;5.90;;
60665;SDS011;59128;44.642;21.188;2024-02-14T07:54:08;8.02;;;6.18;;
60665;SDS011;59128;44.642;21.188;2024-02-14T07:56:35;8.52;;;6.20;;
60665;SDS011;59128;44.642;21.188;2024-02-14T07:59:01;7.00;;;6.00;;
60665;SDS011;59128;44.642;21.188;2024-02-14T08:01:27;7.97;;;7.18;;
60665;SDS011;59128;44.642;21.188;2024-02-14T08:03:53;9.60;;;6.13;;
60665;SDS011;59128;44.642;21.188;2024-02-14T08:06:19;8.10;;;6.40;;
60665;SDS011;59128;44.642;21.188;2024-02-14T08:08:46;6.80;;;6.07;;
60665;SDS011;59128;44.642;21.188;2024-02-14T08:11:14;6.72;;;6.07;;
60665;SDS011;59128;44.642;21.188;2024-02-14T08:13:40;7.97;;;6.07;;
60665;SDS011;59128;44.642;21.188;2024-02-14T08:16:06;7.05;;;6.00;;
60665;SDS011;59128;44.642;21.188;2024-02-14T08:18:32;7.93;;;5.72;;
60665;SDS011;59128;44.642;21.188;2024-02-14T08:20:58;6.40;;;5.80;;
60665;SDS011;59128;44.642;21.188;2024-02-14T08:23:24;7.53;;;6.22;;
60665;SDS011;59128;44.642;21.188;2024-02-14T08:25:50;7.38;;;6.10;;
60665;SDS011;59128;44.642;21.188;2024-02-14T08:28:16;9.32;;;6.38;;
60665;SDS011;59128;44.642;21.188;2024-02-14T08:30:46;6.40;;;5.78;;
60665;SDS011;59128;44.642;21.188;2024-02-14T08:33:12;6.68;;;5.93;;
60665;SDS011;59128;44.642;21.188;2024-02-14T08:35:39;6.80;;;5.72;;
60665;SDS011;59128;44.642;21.188;2024-02-14T08:38:05;8.23;;;5.80;;
60665;SDS011;59128;44.642;21.188;2024-02-14T08:40:31;6.53;;;5.65;;
60665;SDS011;59128;44.642;21.188;2024-02-14T08:42:57;8.98;;;6.68;;
60665;SDS011;59128;44.642;21.188;2024-02-14T08:45:24;6.68;;;5.95;;
60665;SDS011;59128;44.642;21.188;2024-02-14T08:47:50;6.80;;;5.88;;
60665;SDS011;59128;44.642;21.188;2024-02-14T08:50:16;8.45;;;6.10;;
60665;SDS011;59128;44.642;21.188;2024-02-14T08:52:43;6.25;;;5.65;;
60665;SDS011;59128;44.642;21.188;2024-02-14T08:55:09;6.57;;;5.90;;
60665;SDS011;59128;44.642;21.188;2024-02-14T08:57:41;6.55;;;5.82;;
60665;SDS011;59128;44.642;21.188;2024-02-14T09:00:08;7.20;;;6.50;;
60665;SDS011;59128;44.642;21.188;2024-02-14T09:02:35;7.30;;;6.07;;
60665;SDS011;59128;44.642;21.188;2024-02-14T09:05:02;6.82;;;6.13;;
60665;SDS011;59128;44.642;21.188;2024-02-14T09:07:30;6.28;;;5.78;;
60665;SDS011;59128;44.642;21.188;2024-02-14T09:09:58;6.88;;;5.65;;
60665;SDS011;59128;44.642;21.188;2024-02-14T09:12:24;7.47;;;6.00;;
60665;SDS011;59128;44.642;21.188;2024-02-14T09:14:50;6.65;;;5.90;;
60665;SDS011;59128;44.642;21.188;2024-02-14T09:17:16;7.13;;;6.43;;
60665;SDS011;59128;44.642;21.188;2024-02-14T09:19:43;6.57;;;5.97;;
60665;SDS011;59128;44.642;21.188;2024-02-14T09:22:09;9.35;;;6.38;;
60665;SDS011;59128;44.642;21.188;2024-02-14T09:24:35;8.85;;;6.38;;
60665;SDS011;59128;44.642;21.188;2024-02-14T09:27:01;7.32;;;5.75;;
60665;SDS011;59128;44.642;21.188;2024-02-14T09:29:27;7.70;;;6.28;;
60665;SDS011;59128;44.642;21.188;2024-02-14T09:31:54;8.35;;;6.15;;
60665;SDS011;59128;44.642;21.188;2024-02-14T09:34:20;6.45;;;5.85;;
60665;SDS011;59128;44.642;21.188;2024-02-14T09:36:50;9.25;;;6.82;;
60665;SDS011;59128;44.642;21.188;2024-02-14T09:39:18;6.50;;;5.78;;
60665;SDS011;59128;44.642;21.188;2024-02-14T09:41:45;6.25;;;5.65;;
60665;SDS011;59128;44.642;21.188;2024-02-14T09:44:13;6.20;;;5.60;;
60665;SDS011;59128;44.642;21.188;2024-02-14T09:46:39;7.70;;;6.07;;
60665;SDS011;59128;44.642;21.188;2024-02-14T09:49:05;8.15;;;5.80;;
60665;SDS011;59128;44.642;21.188;2024-02-14T09:51:32;8.20;;;5.90;;
60665;SDS011;59128;44.642;21.188;2024-02-14T09:53:59;8.15;;;6.10;;
60665;SDS011;59128;44.642;21.188;2024-02-14T09:56:28;8.13;;;6.43;;
60665;SDS011;59128;44.642;21.188;2024-02-14T09:58:56;7.00;;;5.60;;
60665;SDS011;59128;44.642;21.188;2024-02-14T10:01:23;8.45;;;5.97;;
60665;SDS011;59128;44.642;21.188;2024-02-14T10:03:50;6.70;;;6.00;;
60665;SDS011;59128;44.642;21.188;2024-02-14T10:06:17;7.25;;;5.93;;
60665;SDS011;59128;44.642;21.188;2024-02-14T10:08:45;7.07;;;6.32;;
60665;SDS011;59128;44.642;21.188;2024-02-14T10:11:13;6.78;;;6.10;;
60665;SDS011;59128;44.642;21.188;2024-02-14T10:13:40;8.68;;;6.60;;
60665;SDS011;59128;44.642;21.188;2024-02-14T10:16:06;8.85;;;6.00;;
60665;SDS011;59128;44.642;21.188;2024-02-14T10:18:33;6.90;;;6.18;;
60665;SDS011;59128;44.642;21.188;2024-02-14T10:21:00;6.10;;;5.50;;
60665;SDS011;59128;44.642;21.188;2024-02-14T10:23:27;6.13;;;5.45;;
60665;SDS011;59128;44.642;21.188;2024-02-14T10:25:54;6.63;;;5.93;;
60665;SDS011;59128;44.642;21.188;2024-02-14T10:28:21;6.60;;;5.90;;
60665;SDS011;59128;44.642;21.188;2024-02-14T10:30:48;11.93;;;6.22;;
60665;SDS011;59128;44.642;21.188;2024-02-14T10:33:17;7.35;;;5.82;;
60665;SDS011;59128;44.642;21.188;2024-02-14T10:35:47;8.82;;;5.80;;
60665;SDS011;59128;44.642;21.188;2024-02-14T10:38:13;7.43;;;6.00;;
60665;SDS011;59128;44.642;21.188;2024-02-14T10:40:41;8.00;;;6.50;;
60665;SDS011;59128;44.642;21.188;2024-02-14T10:43:08;7.88;;;6.75;;
60665;SDS011;59128;44.642;21.188;2024-02-14T10:45:37;7.00;;;6.30;;
60665;SDS011;59128;44.642;21.188;2024-02-14T10:48:04;6.97;;;6.27;;
60665;SDS011;59128;44.642;21.188;2024-02-14T10:50:32;7.67;;;6.53;;
60665;SDS011;59128;44.642;21.188;2024-02-14T10:53:00;7.78;;;6.20;;
60665;SDS011;59128;44.642;21.188;2024-02-14T10:55:29;6.75;;;6.05;;
60665;SDS011;59128;44.642;21.188;2024-02-14T10:57:55;6.80;;;6.10;;
60665;SDS011;59128;44.642;21.188;2024-02-14T11:00:22;6.63;;;5.70;;
60665;SDS011;59128;44.642;21.188;2024-02-14T11:02:49;6.97;;;6.28;;
60665;SDS011;59128;44.642;21.188;2024-02-14T11:05:16;7.43;;;6.38;;
60665;SDS011;59128;44.642;21.188;2024-02-14T11:07:45;7.45;;;6.60;;
60665;SDS011;59128;44.642;21.188;2024-02-14T11:10:15;5.63;;;5.07;;
60665;SDS011;59128;44.642;21.188;2024-02-14T11:12:41;6.45;;;5.75;;
60665;SDS011;59128;44.642;21.188;2024-02-14T11:15:10;7.40;;;6.00;;
60665;SDS011;59128;44.642;21.188;2024-02-14T11:17:37;6.90;;;6.20;;
60665;SDS011;59128;44.642;21.188;2024-02-14T11:20:16;7.78;;;6.22;;
60665;SDS011;59128;44.642;21.188;2024-02-14T11:22:55;5.95;;;5.35;;
60665;SDS011;59128;44.642;21.188;2024-02-14T11:25:23;6.35;;;5.57;;
60665;SDS011;59128;44.642;21.188;2024-02-14T11:27:49;7.05;;;6.00;;
60665;SDS011;59128;44.642;21.188;2024-02-14T11:30:26;6.57;;;5.97;;
60665;SDS011;59128;44.642;21.188;2024-02-14T11:32:52;7.10;;;5.80;;
60665;SDS011;59128;44.642;21.188;2024-02-14T11:35:18;6.00;;;5.25;;
60665;SDS011;59128;44.642;21.188;2024-02-14T11:37:44;7.13;;;6.00;;
60665;SDS011;59128;44.642;21.188;2024-02-14T11:40:19;6.97;;;6.07;;
60665;SDS011;59128;44.642;21.188;2024-02-14T11:42:46;6.22;;;5.63;;
60665;SDS011;59128;44.642;21.188;2024-02-14T11:45:12;6.50;;;5.78;;
60665;SDS011;59128;44.642;21.188;2024-02-14T11:47:39;7.88;;;6.00;;
60665;SDS011;59128;44.642;21.188;2024-02-14T11:50:05;8.18;;;6.20;;
60665;SDS011;59128;44.642;21.188;2024-02-14T11:52:31;6.30;;;5.70;;
60665;SDS011;59128;44.642;21.188;2024-02-14T11:54:58;7.43;;;6.13;;
60665;SDS011;59128;44.642;21.188;2024-02-14T11:57:25;6.78;;;6.13;;
60665;SDS011;59128;44.642;21.188;2024-02-14T11:59:52;6.25;;;5.65;;
60665;SDS011;59128;44.642;21.188;2024-02-14T12:02:19;6.88;;;5.90;;
60665;SDS011;59128;44.642;21.188;2024-02-14T12:04:46;7.23;;;5.23;;
60665;SDS011;59128;44.642;21.188;2024-02-14T12:07:13;6.43;;;5.80;;
60665;SDS011;59128;44.642;21.188;2024-02-14T12:09:39;6.80;;;6.10;;
60665;SDS011;59128;44.642;21.188;2024-02-14T12:12:05;7.30;;;5.95;;
60665;SDS011;59128;44.642;21.188;2024-02-14T12:14:32;7.55;;;5.70;;
60665;SDS011;59128;44.642;21.188;2024-02-14T12:17:01;6.85;;;6.03;;
60665;SDS011;59128;44.642;21.188;2024-02-14T12:19:27;6.97;;;6.22;;
60665;SDS011;59128;44.642;21.188;2024-02-14T12:21:54;6.57;;;5.75;;
60665;SDS011;59128;44.642;21.188;2024-02-14T12:24:24;6.93;;;5.25;;
60665;SDS011;59128;44.642;21.188;2024-02-14T12:26:54;6.65;;;5.47;;
60665;SDS011;59128;44.642;21.188;2024-02-14T12:29:20;5.80;;;5.25;;
60665;SDS011;59128;44.642;21.188;2024-02-14T12:31:49;6.53;;;5.93;;
60665;SDS011;59128;44.642;21.188;2024-02-14T12:34:15;6.70;;;5.82;;
60665;SDS011;59128;44.642;21.188;2024-02-14T12:36:43;6.18;;;5.57;;
60665;SDS011;59128;44.642;21.188;2024-02-14T12:39:09;6.00;;;5.40;;
60665;SDS011;59128;44.642;21.188;2024-02-14T12:41:37;6.18;;;5.10;;
60665;SDS011;59128;44.642;21.188;2024-02-14T12:44:05;7.13;;;5.70;;
60665;SDS011;59128;44.642;21.188;2024-02-14T12:46:32;6.18;;;5.57;;
60665;SDS011;59128;44.642;21.188;2024-02-14T12:48:58;6.13;;;5.53;;
60665;SDS011;59128;44.642;21.188;2024-02-14T12:51:24;6.20;;;5.60;;
60665;SDS011;59128;44.642;21.188;2024-02-14T12:53:53;6.70;;;5.93;;
60665;SDS011;59128;44.642;21.188;2024-02-14T12:56:19;7.03;;;5.53;;
60665;SDS011;59128;44.642;21.188;2024-02-14T12:58:45;6.60;;;5.80;;
60665;SDS011;59128;44.642;21.188;2024-02-14T13:01:12;6.75;;;6.00;;
60665;SDS011;59128;44.642;21.188;2024-02-14T13:03:39;7.07;;;6.00;;
60665;SDS011;59128;44.642;21.188;2024-02-14T13:06:05;7.17;;;6.00;;
60665;SDS011;59128;44.642;21.188;2024-02-14T13:08:31;6.53;;;5.80;;
60665;SDS011;59128;44.642;21.188;2024-02-14T13:10:57;7.30;;;6.18;;
60665;SDS011;59128;44.642;21.188;2024-02-14T13:13:24;6.55;;;5.68;;
60665;SDS011;59128;44.642;21.188;2024-02-14T13:15:50;6.00;;;5.40;;
60665;SDS011;59128;44.642;21.188;2024-02-14T13:18:16;6.70;;;5.45;;
60665;SDS011;59128;44.642;21.188;2024-02-14T13:20:42;6.18;;;5.38;;
60665;SDS011;59128;44.642;21.188;2024-02-14T13:23:09;7.30;;;6.00;;
60665;SDS011;59128;44.642;21.188;2024-02-14T13:25:35;6.37;;;5.70;;
60665;SDS011;59128;44.642;21.188;2024-02-14T13:28:02;7.30;;;5.72;;
60665;SDS011;59128;44.642;21.188;2024-02-14T13:30:29;6.85;;;5.75;;
60665;SDS011;59128;44.642;21.188;2024-02-14T13:32:55;6.13;;;5.22;;
60665;SDS011;59128;44.642;21.188;2024-02-14T13:35:21;6.53;;;5.82;;
60665;SDS011;59128;44.642;21.188;2024-02-14T13:37:48;6.63;;;5.63;;
60665;SDS011;59128;44.642;21.188;2024-02-14T13:40:15;6.47;;;5.70;;
60665;SDS011;59128;44.642;21.188;2024-02-14T13:42:41;6.23;;;5.60;;
60665;SDS011;59128;44.642;21.188;2024-02-14T13:45:07;6.85;;;6.05;;
60665;SDS011;59128;44.642;21.188;2024-02-14T13:47:35;6.53;;;5.93;;
60665;SDS011;59128;44.642;21.188;2024-02-14T13:50:04;7.30;;;6.05;;
60665;SDS011;59128;44.642;21.188;2024-02-14T13:52:30;6.47;;;5.70;;
60665;SDS011;59128;44.642;21.188;2024-02-14T13:54:56;6.28;;;5.68;;
60665;SDS011;59128;44.642;21.188;2024-02-14T13:57:22;6.45;;;5.53;;
60665;SDS011;59128;44.642;21.188;2024-02-14T13:59:48;6.78;;;6.00;;
60665;SDS011;59128;44.642;21.188;2024-02-14T14:02:14;7.80;;;6.03;;
60665;SDS011;59128;44.642;21.188;2024-02-14T14:04:40;6.75;;;5.47;;
60665;SDS011;59128;44.642;21.188;2024-02-14T14:07:06;7.60;;;5.90;;
60665;SDS011;59128;44.642;21.188;2024-02-14T14:09:33;7.60;;;6.00;;
60665;SDS011;59128;44.642;21.188;2024-02-14T14:12:00;6.28;;;5.68;;
60665;SDS011;59128;44.642;21.188;2024-02-14T14:14:26;6.40;;;5.80;;
60665;SDS011;59128;44.642;21.188;2024-02-14T14:16:53;6.87;;;5.80;;
60665;SDS011;59128;44.642;21.188;2024-02-14T14:19:19;7.97;;;6.13;;
60665;SDS011;59128;44.642;21.188;2024-02-14T14:21:45;7.03;;;6.20;;
60665;SDS011;59128;44.642;21.188;2024-02-14T14:24:12;7.43;;;6.17;;
60665;SDS011;59128;44.642;21.188;2024-02-14T14:26:38;6.97;;;6.28;;
60665;SDS011;59128;44.642;21.188;2024-02-14T14:29:04;7.97;;;6.40;;
60665;SDS011;59128;44.642;21.188;2024-02-14T14:31:30;7.80;;;5.85;;